createdAt,value
2019-05-09T00:00:03.807Z,60.50
2019-05-09T00:02:39.794Z,60.37
2019-05-09T00:05:13.236Z,60.44
2019-05-09T00:07:44.775Z,60.46
2019-05-09T00:10:17.097Z,63.38
2019-05-09T00:12:49.008Z,63.11
2019-05-09T00:15:21.069Z,64.28
2019-05-09T00:17:53.336Z,66.87
2019-05-09T00:20:44.177Z,68.58
2019-05-09T00:23:16.200Z,68.31
2019-05-09T00:25:48.250Z,69.72
2019-05-09T00:28:20.204Z,69.40
2019-05-09T00:31:05.719Z,68.56
2019-05-09T00:33:37.690Z,67.62
2019-05-09T00:36:09.574Z,67.78
2019-05-09T00:38:43.576Z,67.24
2019-05-09T00:41:17.163Z,66.81
2019-05-09T00:43:55.096Z,67.02
2019-05-09T00:46:39.505Z,66.84
2019-05-09T00:49:18.276Z,72.46
2019-05-09T00:51:49.625Z,71.91
2019-05-09T00:54:23.911Z,70.58
2019-05-09T00:56:55.125Z,69.93
2019-05-09T00:59:27.055Z,70.02
2019-05-09T01:01:59.236Z,70.40
2019-05-09T01:04:33.312Z,70.16
2019-05-09T01:07:05.513Z,71.15
2019-05-09T01:09:37.437Z,72.80
2019-05-09T01:12:09.488Z,72.00
2019-05-09T01:14:43.255Z,71.67
2019-05-09T01:17:15.122Z,71.42
2019-05-09T01:19:47.179Z,71.62
2019-05-09T01:22:19.177Z,73.46
2019-05-09T01:24:53.296Z,72.47
2019-05-09T01:27:24.812Z,74.38
2019-05-09T01:29:57.766Z,73.21
2019-05-09T01:32:47.317Z,73.85
2019-05-09T01:35:19.341Z,73.48
2019-05-09T01:37:51.289Z,79.82
2019-05-09T01:40:23.895Z,79.59
2019-05-09T01:42:56.017Z,79.12
2019-05-09T01:45:27.961Z,77.63
2019-05-09T01:47:59.935Z,77.73
2019-05-09T01:50:33.904Z,77.77
2019-05-09T01:53:05.725Z,81.83
2019-05-09T01:55:55.413Z,80.97
2019-05-09T01:58:28.889Z,79.98
2019-05-09T02:01:03.708Z,80.58
2019-05-09T02:03:35.801Z,82.21
2019-05-09T02:06:08.285Z,86.25
2019-05-09T02:08:40.366Z,86.18
2019-05-09T02:11:13.280Z,86.51
2019-05-09T02:13:44.807Z,87.96
2019-05-09T02:16:25.223Z,89.26
2019-05-09T02:19:24.011Z,89.03
2019-05-09T02:21:55.658Z,88.02
2019-05-09T02:24:26.889Z,89.95
2019-05-09T02:26:58.693Z,89.69
2019-05-09T02:29:30.645Z,88.50
2019-05-09T02:32:04.500Z,89.30
2019-05-09T02:34:36.300Z,88.09
2019-05-09T02:37:09.302Z,86.93
2019-05-09T02:39:41.402Z,86.48
2019-05-09T02:42:14.462Z,87.69
2019-05-09T02:44:49.243Z,87.28
2019-05-09T02:47:22.266Z,86.58
2019-05-09T02:49:54.315Z,86.15
2019-05-09T02:52:28.706Z,85.99
2019-05-09T02:54:59.271Z,86.07
2019-05-09T02:57:30.490Z,86.28
2019-05-09T03:00:21.126Z,86.68
2019-05-09T03:03:02.035Z,86.88
2019-05-09T03:05:33.863Z,87.62
2019-05-09T03:08:08.742Z,90.00
2019-05-09T03:10:39.416Z,90.77
2019-05-09T03:13:11.480Z,91.85
2019-05-09T03:15:43.920Z,91.05
2019-05-09T03:18:18.411Z,91.43
2019-05-09T03:21:08.611Z,90.24
2019-05-09T03:23:39.772Z,89.87
2019-05-09T03:26:19.220Z,90.14
2019-05-09T03:28:59.279Z,90.46
2019-05-09T03:31:32.213Z,89.85
2019-05-09T03:34:04.235Z,89.96
2019-05-09T03:36:35.550Z,90.28
2019-05-09T03:39:08.874Z,90.19
2019-05-09T03:41:40.765Z,90.76
2019-05-09T03:44:12.741Z,91.09
2019-05-09T03:47:08.271Z,91.10
2019-05-09T03:49:39.972Z,91.01
2019-05-09T03:52:13.943Z,91.14
2019-05-09T03:54:47.622Z,91.67
2019-05-09T03:57:28.359Z,91.54
2019-05-09T04:00:00.380Z,91.69
2019-05-09T04:02:32.332Z,91.86
2019-05-09T04:05:03.619Z,94.09
2019-05-09T04:07:35.364Z,92.99
2019-05-09T04:10:07.884Z,92.52
2019-05-09T04:12:52.906Z,92.45
2019-05-09T04:15:13.263Z,93.21
2019-05-09T04:17:47.442Z,92.76
2019-05-09T04:20:18.865Z,93.23
2019-05-09T04:22:50.685Z,92.13
2019-05-09T04:25:27.682Z,91.86
2019-05-09T04:27:58.864Z,92.15
2019-05-09T04:30:30.693Z,92.24
2019-05-09T04:33:02.544Z,94.16
2019-05-09T04:35:34.439Z,92.93
2019-05-09T04:38:07.823Z,92.06
2019-05-09T04:40:44.919Z,91.93
2019-05-09T04:43:18.741Z,91.96
2019-05-09T04:45:57.818Z,91.91
2019-05-09T04:48:34.402Z,90.90
2019-05-09T04:51:07.879Z,90.82
2019-05-09T04:53:39.997Z,90.76
2019-05-09T04:56:21.175Z,90.78
2019-05-09T04:58:53.174Z,90.21
2019-05-09T05:01:44.252Z,90.74
2019-05-09T05:04:18.054Z,90.44
2019-05-09T05:06:59.222Z,90.45
2019-05-09T05:09:32.598Z,90.22
2019-05-09T05:12:04.388Z,89.71
2019-05-09T05:14:38.259Z,89.58
2019-05-09T05:17:11.315Z,88.03
2019-05-09T05:19:43.493Z,86.91
2019-05-09T05:22:28.188Z,85.79
2019-05-09T05:25:04.115Z,84.53
2019-05-09T05:27:35.302Z,82.48
2019-05-09T05:30:07.850Z,81.98
2019-05-09T05:32:49.195Z,82.32
2019-05-09T05:35:39.872Z,83.11
2019-05-09T05:38:11.759Z,83.34
2019-05-09T05:40:46.413Z,83.03
2019-05-09T05:43:17.479Z,82.25
2019-05-09T05:46:07.657Z,81.23
2019-05-09T05:48:40.754Z,79.61
2019-05-09T05:51:12.654Z,78.23
2019-05-09T05:53:44.486Z,78.30
2019-05-09T05:56:18.758Z,78.68
2019-05-09T05:58:50.631Z,79.71
2019-05-09T06:01:22.527Z,80.10
2019-05-09T06:03:54.455Z,80.50
2019-05-09T06:06:33.861Z,80.85
2019-05-09T06:09:08.288Z,80.90
2019-05-09T06:11:40.307Z,80.85
2019-05-09T06:14:12.160Z,80.70
2019-05-09T06:16:44.066Z,80.89
2019-05-09T06:19:17.814Z,81.03
2019-05-09T06:21:52.312Z,80.87
2019-05-09T06:24:24.522Z,80.83
2019-05-09T06:26:58.555Z,81.69
2019-05-09T06:29:30.164Z,81.17
2019-05-09T06:32:03.903Z,79.96
2019-05-09T06:34:39.644Z,79.49
2019-05-09T06:37:09.489Z,78.14
2019-05-09T06:39:41.379Z,76.83
2019-05-09T06:42:13.019Z,74.69
2019-05-09T06:45:02.186Z,73.77
2019-05-09T06:47:38.096Z,72.35
2019-05-09T06:50:12.113Z,71.48
2019-05-09T06:52:45.224Z,70.57
2019-05-09T06:55:17.410Z,70.20
2019-05-09T06:57:49.495Z,71.16
2019-05-09T07:00:44.631Z,71.18
2019-05-09T07:03:18.958Z,71.84
2019-05-09T07:06:24.136Z,71.59
2019-05-09T07:09:03.160Z,71.40
2019-05-09T07:11:38.093Z,70.40
2019-05-09T07:14:32.307Z,68.93
2019-05-09T07:17:01.842Z,68.73
2019-05-09T07:19:33.789Z,68.64
2019-05-09T07:22:19.664Z,68.89
2019-05-09T07:25:10.903Z,69.20
2019-05-09T07:27:43.322Z,69.70
2019-05-09T07:30:29.084Z,70.29
2019-05-09T07:33:12.874Z,69.62
2019-05-09T07:35:47.444Z,67.22
2019-05-09T07:38:28.630Z,67.40
2019-05-09T07:41:01.149Z,66.63
2019-05-09T07:43:32.875Z,65.73
2019-05-09T07:46:09.161Z,67.77
2019-05-09T07:48:44.773Z,67.97
2019-05-09T07:51:18.061Z,68.74
2019-05-09T07:53:50.178Z,67.96
2019-05-09T07:56:21.570Z,66.47
2019-05-09T07:58:53.490Z,65.76
2019-05-09T08:01:27.834Z,64.32
2019-05-09T08:03:59.241Z,62.01
2019-05-09T08:06:31.324Z,60.65
2019-05-09T08:09:03.521Z,59.72
2019-05-09T08:11:37.488Z,58.80
2019-05-09T08:14:10.939Z,59.90
2019-05-09T08:16:42.518Z,57.49
2019-05-09T08:19:14.348Z,55.59
2019-05-09T08:21:47.969Z,55.98
2019-05-09T08:24:19.694Z,54.72
2019-05-09T08:26:51.622Z,56.13
2019-05-09T08:29:23.450Z,56.06
2019-05-09T08:31:55.328Z,54.29
2019-05-09T08:34:28.472Z,56.00
2019-05-09T08:37:00.755Z,52.36
2019-05-09T08:39:32.661Z,51.06
2019-05-09T08:42:03.832Z,51.43
2019-05-09T08:44:37.754Z,51.54
2019-05-09T08:47:09.157Z,50.42
2019-05-09T08:49:49.915Z,49.34
2019-05-09T08:52:21.776Z,48.42
2019-05-09T08:54:57.810Z,48.87
2019-05-09T08:57:29.955Z,51.59
2019-05-09T09:00:01.777Z,52.38
2019-05-09T09:02:33.805Z,50.42
2019-05-09T09:05:07.898Z,50.34
2019-05-09T09:07:39.456Z,48.27
2019-05-09T09:10:11.252Z,46.87
2019-05-09T09:12:43.142Z,46.46
2019-05-09T09:15:15.041Z,46.64
2019-05-09T09:17:49.147Z,46.03
2019-05-09T09:20:20.538Z,46.01
2019-05-09T09:22:57.927Z,47.08
2019-05-09T09:25:28.978Z,46.77
2019-05-09T09:28:00.248Z,47.21
2019-05-09T09:30:32.046Z,47.79
2019-05-09T09:33:03.843Z,47.05
2019-05-09T09:35:38.091Z,46.73
2019-05-09T09:38:09.617Z,46.64
2019-05-09T09:40:41.739Z,45.72
2019-05-09T09:43:13.551Z,44.80
2019-05-09T09:45:47.830Z,43.93
2019-05-09T09:48:19.035Z,43.72
2019-05-09T09:50:51.971Z,43.89
2019-05-09T09:53:23.825Z,43.35
2019-05-09T09:55:58.000Z,44.07
2019-05-09T09:58:29.199Z,43.98
2019-05-09T10:01:23.030Z,46.18
2019-05-09T10:04:16.595Z,47.11
2019-05-09T10:06:41.109Z,46.21
2019-05-09T10:09:13.198Z,46.95
2019-05-09T10:11:45.202Z,44.51
2019-05-09T10:14:22.364Z,43.53
2019-05-09T10:17:13.085Z,45.53
2019-05-09T10:20:06.693Z,43.45
2019-05-09T10:22:46.434Z,43.08
2019-05-09T10:25:12.321Z,42.68
2019-05-09T10:27:45.021Z,42.62
2019-05-09T10:30:19.503Z,42.88
2019-05-09T10:32:52.941Z,41.72
2019-05-09T10:35:27.813Z,43.23
2019-05-09T10:38:00.148Z,40.34
2019-05-09T10:40:32.073Z,39.84
2019-05-09T10:43:34.632Z,40.35
2019-05-09T10:46:15.502Z,39.30
2019-05-09T10:48:51.963Z,39.05
2019-05-09T10:51:23.855Z,39.69
2019-05-09T10:53:55.661Z,40.13
2019-05-09T10:56:28.191Z,40.38
2019-05-09T10:59:00.105Z,39.68
2019-05-09T11:01:31.932Z,38.12
2019-05-09T11:04:03.735Z,38.63
2019-05-09T11:06:38.232Z,38.29
2019-05-09T11:09:11.335Z,37.25
2019-05-09T11:11:44.385Z,37.68
2019-05-09T11:14:31.577Z,37.90
2019-05-09T11:17:06.421Z,36.53
2019-05-09T11:19:23.463Z,36.06
2019-05-09T11:21:58.646Z,36.44
2019-05-09T11:24:41.765Z,36.50
2019-05-09T11:27:04.324Z,35.84
2019-05-09T11:29:35.511Z,35.70
2019-05-09T11:32:08.058Z,35.97
2019-05-09T11:34:40.092Z,36.55
2019-05-09T11:37:11.962Z,36.20
2019-05-09T11:39:43.797Z,34.98
2019-05-09T11:42:17.713Z,36.52
2019-05-09T11:44:49.291Z,36.99
2019-05-09T11:47:31.931Z,36.82
2019-05-09T11:49:54.469Z,36.77
2019-05-09T11:52:28.630Z,35.89
2019-05-09T11:54:59.141Z,35.90
2019-05-09T11:57:31.641Z,37.15
2019-05-09T12:00:04.125Z,37.85
2019-05-09T12:02:38.552Z,37.11
2019-05-09T12:05:10.145Z,36.05
2019-05-09T12:07:41.956Z,35.58
2019-05-09T12:10:13.979Z,34.94
2019-05-09T12:12:47.791Z,34.73
2019-05-09T12:15:19.520Z,33.09
2019-05-09T12:17:58.249Z,33.42
2019-05-09T12:20:24.883Z,33.30
2019-05-09T12:22:58.436Z,34.12
2019-05-09T12:25:30.249Z,34.42
2019-05-09T12:28:02.187Z,36.15
2019-05-09T12:30:34.180Z,35.68
2019-05-09T12:33:08.477Z,34.68
2019-05-09T12:35:39.673Z,34.54
2019-05-09T12:38:11.628Z,34.88
2019-05-09T12:40:43.589Z,34.27
2019-05-09T12:43:18.596Z,34.02
2019-05-09T12:45:50.029Z,32.88
2019-05-09T12:48:21.836Z,34.28
2019-05-09T12:50:53.709Z,32.84
2019-05-09T12:53:27.978Z,31.83
2019-05-09T12:56:03.369Z,32.53
2019-05-09T12:58:35.225Z,31.96
2019-05-09T13:01:07.624Z,32.78
2019-05-09T13:03:42.337Z,33.09
2019-05-09T13:06:14.311Z,33.53
2019-05-09T13:08:48.038Z,33.73
2019-05-09T13:11:20.220Z,33.35
2019-05-09T13:13:52.191Z,33.16
2019-05-09T13:16:47.532Z,33.18
2019-05-09T13:19:12.633Z,33.35
2019-05-09T13:21:44.403Z,32.57
2019-05-09T13:24:19.468Z,32.97
2019-05-09T13:26:51.751Z,33.08
2019-05-09T13:29:23.684Z,33.35
2019-05-09T13:31:57.724Z,33.15
2019-05-09T13:34:29.735Z,34.71
2019-05-09T13:37:01.668Z,34.12
2019-05-09T13:39:33.644Z,34.73
2019-05-09T13:42:07.984Z,33.86
2019-05-09T13:44:41.609Z,34.26
2019-05-09T13:47:12.969Z,34.91
2019-05-09T13:49:48.267Z,35.21
2019-05-09T13:52:19.609Z,36.58
2019-05-09T13:54:51.459Z,36.86
2019-05-09T13:57:22.730Z,35.07
2019-05-09T13:59:54.543Z,33.08
2019-05-09T14:02:28.559Z,33.63
2019-05-09T14:04:59.997Z,33.97
2019-05-09T14:07:31.814Z,35.03
2019-05-09T14:10:03.803Z,35.35
2019-05-09T14:12:38.027Z,35.36
2019-05-09T14:15:09.580Z,34.92
2019-05-09T14:17:48.595Z,35.17
2019-05-09T14:20:15.150Z,35.36
2019-05-09T14:22:49.021Z,36.34
2019-05-09T14:25:20.647Z,36.62
2019-05-09T14:27:52.531Z,36.42
2019-05-09T14:30:24.477Z,36.57
2019-05-09T14:32:56.302Z,37.27
2019-05-09T14:35:29.256Z,36.94
2019-05-09T14:38:01.287Z,35.76
2019-05-09T14:40:34.311Z,34.34
2019-05-09T14:43:06.249Z,33.81
2019-05-09T14:45:38.240Z,33.37
2019-05-09T14:48:10.997Z,34.86
2019-05-09T14:50:42.931Z,34.98
2019-05-09T14:53:15.475Z,35.19
2019-05-09T14:55:47.644Z,35.71
2019-05-09T14:58:18.862Z,36.50
2019-05-09T15:00:49.999Z,36.82
2019-05-09T15:03:21.821Z,36.92
2019-05-09T15:05:57.562Z,36.28
2019-05-09T15:08:29.429Z,37.37
2019-05-09T15:11:03.080Z,38.77
2019-05-09T15:13:34.266Z,37.38
2019-05-09T15:16:08.853Z,36.52
2019-05-09T15:18:40.487Z,36.45
2019-05-09T15:21:12.295Z,36.65
2019-05-09T15:23:44.315Z,37.01
2019-05-09T15:26:17.684Z,37.36
2019-05-09T15:28:49.829Z,38.00
2019-05-09T15:31:21.640Z,38.37
2019-05-09T15:33:53.505Z,38.11
2019-05-09T15:36:25.437Z,37.94
2019-05-09T15:38:59.157Z,38.13
2019-05-09T15:41:30.931Z,37.76
2019-05-09T15:44:02.744Z,37.10
2019-05-09T15:46:40.489Z,36.51
2019-05-09T15:49:12.332Z,35.92
2019-05-09T15:51:44.185Z,35.51
2019-05-09T15:54:17.834Z,34.72
2019-05-09T15:56:49.758Z,34.57
2019-05-09T15:59:21.660Z,34.20
2019-05-09T16:01:53.687Z,34.99
2019-05-09T16:04:27.877Z,34.52
2019-05-09T16:07:02.180Z,34.37
2019-05-09T16:09:34.087Z,33.81
2019-05-09T16:12:07.793Z,35.41
2019-05-09T16:14:40.469Z,36.67
2019-05-09T16:17:12.390Z,37.95
2019-05-09T16:19:44.315Z,38.64
2019-05-09T16:22:18.734Z,38.43
2019-05-09T16:24:49.906Z,38.10
2019-05-09T16:27:21.762Z,36.77
2019-05-09T16:29:53.832Z,36.27
2019-05-09T16:32:28.051Z,36.25
2019-05-09T16:35:01.791Z,35.84
2019-05-09T16:37:56.324Z,35.96
2019-05-09T16:40:08.531Z,35.76
2019-05-09T16:42:40.568Z,36.17
2019-05-09T16:45:17.906Z,36.54
2019-05-09T16:47:49.575Z,36.82
2019-05-09T16:51:03.257Z,36.94
2019-05-09T16:53:31.034Z,36.65
2019-05-09T16:56:03.091Z,36.86
2019-05-09T16:58:34.926Z,36.79
2019-05-09T17:01:09.144Z,37.08
2019-05-09T17:03:41.206Z,37.60
2019-05-09T17:06:13.284Z,38.23
2019-05-09T17:08:49.129Z,38.98
2019-05-09T17:11:21.133Z,39.61
2019-05-09T17:13:53.271Z,39.71
2019-05-09T17:16:24.782Z,39.60
2019-05-09T17:18:58.107Z,39.08
2019-05-09T17:21:48.097Z,38.25
2019-05-09T17:24:20.025Z,36.99
2019-05-09T17:26:51.875Z,37.30
2019-05-09T17:29:24.175Z,36.26
2019-05-09T17:31:58.471Z,37.97
2019-05-09T17:34:30.300Z,38.53
2019-05-09T17:37:01.603Z,39.21
2019-05-09T17:39:33.720Z,39.87
2019-05-09T17:42:07.622Z,40.20
2019-05-09T17:44:39.822Z,39.96
2019-05-09T17:47:14.190Z,41.43
2019-05-09T17:49:48.241Z,41.24
2019-05-09T17:52:20.052Z,42.26
2019-05-09T17:55:01.302Z,42.47
2019-05-09T17:57:38.727Z,42.88
2019-05-09T18:00:12.848Z,43.03
2019-05-09T18:02:44.858Z,43.72
2019-05-09T18:05:17.339Z,44.42
2019-05-09T18:07:50.018Z,44.92
2019-05-09T18:10:23.375Z,45.32
2019-05-09T18:12:54.770Z,46.39
2019-05-09T18:15:28.249Z,46.87
2019-05-09T18:17:59.718Z,48.87
2019-05-09T18:20:31.718Z,49.50
2019-05-09T18:23:08.186Z,49.54
2019-05-09T18:25:40.046Z,49.74
2019-05-09T18:28:11.753Z,50.47
2019-05-09T18:30:44.058Z,51.94
2019-05-09T18:33:27.025Z,51.70
2019-05-09T18:35:59.183Z,52.09
2019-05-09T18:38:34.040Z,53.44
2019-05-09T18:41:07.930Z,52.95
2019-05-09T18:43:38.485Z,53.13
2019-05-09T18:46:10.407Z,53.49
2019-05-09T18:48:42.365Z,53.95
2019-05-09T18:51:15.633Z,54.19
2019-05-09T18:53:53.899Z,54.63
2019-05-09T18:56:27.911Z,55.15
2019-05-09T18:59:00.049Z,55.46
2019-05-09T19:01:39.189Z,55.90
2019-05-09T19:04:43.580Z,56.02
2019-05-09T19:07:23.070Z,56.44
2019-05-09T19:12:50.141Z,57.31
2019-05-09T19:15:31.393Z,58.39
2019-05-09T19:18:12.585Z,57.96
2019-05-09T19:20:50.095Z,58.52
2019-05-09T19:23:22.536Z,58.88
2019-05-09T19:25:59.357Z,59.21
2019-05-09T19:40:40.372Z,60.18
2019-05-09T19:43:12.356Z,59.92
2019-05-09T19:45:47.566Z,60.40
2019-05-09T19:48:21.203Z,60.66
2019-05-09T19:50:52.601Z,60.68
2019-05-09T19:53:24.509Z,60.88
2019-05-09T19:55:56.428Z,61.08
2019-05-09T19:58:28.371Z,61.75
2019-05-09T20:00:59.631Z,62.06
2019-05-09T20:03:30.836Z,62.57
2019-05-09T20:06:02.995Z,63.56
2019-05-09T20:08:35.026Z,63.03
2019-05-09T20:11:35.109Z,63.72
2019-05-09T20:14:10.217Z,63.62
2019-05-09T20:16:44.153Z,64.87
2019-05-09T20:19:16.137Z,64.41
2019-05-09T20:21:48.189Z,64.96
2019-05-09T20:24:20.156Z,65.80
2019-05-09T20:26:52.229Z,65.43
2019-05-09T20:29:23.521Z,65.53
2019-05-09T20:31:54.855Z,65.20
2019-05-09T20:34:27.657Z,64.81
2019-05-09T20:36:59.636Z,64.75
2019-05-09T20:39:35.973Z,64.38
2019-05-09T20:42:08.399Z,64.10
2019-05-09T20:44:40.559Z,63.97
2019-05-09T20:47:13.283Z,64.56
2019-05-09T20:49:45.340Z,64.11
2019-05-09T20:52:17.454Z,63.83
2019-05-09T20:54:49.630Z,63.54
2019-05-09T20:57:21.593Z,63.85
2019-05-09T20:59:53.713Z,63.58
2019-05-09T21:02:25.828Z,63.44
2019-05-09T21:04:57.976Z,63.32
2019-05-09T21:07:30.127Z,63.43
2019-05-09T21:10:02.242Z,64.26
2019-05-09T21:12:34.734Z,63.56
2019-05-09T21:15:08.396Z,63.78
2019-05-09T21:17:41.048Z,63.46
2019-05-09T21:20:14.902Z,63.57
2019-05-09T21:22:47.075Z,63.75
2019-05-09T21:25:19.402Z,64.29
2019-05-09T21:27:51.536Z,64.01
2019-05-09T21:30:24.060Z,63.81
2019-05-09T21:32:55.488Z,63.69
2019-05-09T21:35:27.399Z,64.37
2019-05-09T21:37:59.367Z,64.18
2019-05-09T21:40:31.280Z,64.80
2019-05-09T21:43:02.581Z,64.48
2019-05-09T21:45:35.454Z,64.09
2019-05-09T21:48:07.533Z,64.36
2019-05-09T21:50:39.916Z,64.09
2019-05-09T21:53:11.130Z,63.98
2019-05-09T21:55:45.074Z,64.31
2019-05-09T21:58:16.947Z,64.89
2019-05-09T22:00:54.498Z,65.54
2019-05-09T22:03:27.766Z,64.76
2019-05-09T22:05:59.979Z,64.75
2019-05-09T22:08:31.339Z,64.81
2019-05-09T22:11:03.220Z,64.59
2019-05-09T22:13:35.201Z,65.05
2019-05-09T22:16:07.159Z,64.80
2019-05-09T22:18:39.120Z,64.85
2019-05-09T22:21:23.949Z,65.03
2019-05-09T22:23:57.169Z,64.82
2019-05-09T22:26:29.329Z,64.75
2019-05-09T22:29:01.272Z,65.16
2019-05-09T22:31:33.155Z,65.24
2019-05-09T22:34:08.363Z,65.67
2019-05-09T22:36:39.519Z,65.54
2019-05-09T22:39:11.421Z,65.98
2019-05-09T22:41:45.101Z,65.69
2019-05-09T22:44:16.485Z,65.68
2019-05-09T22:46:48.536Z,65.61
2019-05-09T22:49:21.824Z,65.56
2019-05-09T22:51:53.990Z,65.69
2019-05-09T22:54:26.023Z,66.11
2019-05-09T22:56:59.750Z,68.29
2019-05-09T22:59:30.959Z,68.84
2019-05-09T23:02:06.734Z,68.13
2019-05-09T23:04:36.443Z,67.52
2019-05-09T23:07:09.579Z,67.46
2019-05-09T23:09:41.652Z,67.28
2019-05-09T23:12:14.634Z,67.33
2019-05-09T23:14:46.508Z,67.54
2019-05-09T23:17:18.787Z,67.62
2019-05-09T23:19:50.848Z,68.31
2019-05-09T23:22:27.591Z,68.55
2019-05-09T23:25:02.762Z,67.98
2019-05-09T23:27:34.096Z,67.91
2019-05-09T23:30:06.616Z,67.85
2019-05-09T23:32:43.856Z,67.61
2019-05-09T23:35:17.182Z,67.53
2019-05-09T23:37:53.990Z,67.53
2019-05-09T23:40:30.819Z,67.57
2019-05-09T23:43:04.571Z,67.64
2019-05-09T23:45:36.534Z,68.17
2019-05-09T23:48:08.636Z,68.06
2019-05-09T23:50:40.500Z,68.45
2019-05-09T23:53:18.036Z,68.79
2019-05-09T23:56:07.951Z,68.60
2019-05-09T23:58:57.472Z,69.12
